createdAt,value
2017-09-13T00:00:48.321Z,1001.79
2017-09-13T00:01:48.318Z,1001.82
2017-09-13T00:02:48.314Z,1001.74
2017-09-13T00:03:48.310Z,1001.78
2017-09-13T00:04:48.310Z,1001.71
2017-09-13T00:05:48.306Z,1001.67
2017-09-13T00:06:48.303Z,1001.66
2017-09-13T00:07:48.298Z,1001.73
2017-09-13T00:08:48.297Z,1001.68
2017-09-13T00:09:48.291Z,1001.66
2017-09-13T00:10:48.287Z,1001.63
2017-09-13T00:11:48.282Z,1001.56
2017-09-13T00:12:48.274Z,1001.54
2017-09-13T00:13:48.271Z,1001.60
2017-09-13T00:14:48.267Z,1001.49
2017-09-13T00:15:48.262Z,1001.42
2017-09-13T00:16:48.258Z,1001.35
2017-09-13T00:17:48.256Z,1001.27
2017-09-13T00:18:48.251Z,1001.16
2017-09-13T00:19:48.247Z,1001.14
2017-09-13T00:20:48.248Z,1001.02
2017-09-13T00:21:48.245Z,1000.99
2017-09-13T00:22:48.239Z,1000.98
2017-09-13T00:23:48.238Z,1000.87
2017-09-13T00:24:48.232Z,1000.84
2017-09-13T00:25:48.227Z,1000.77
2017-09-13T00:26:48.225Z,1000.73
2017-09-13T00:27:48.221Z,1000.66
2017-09-13T00:28:48.213Z,1000.62
2017-09-13T00:29:48.209Z,1000.43
2017-09-13T00:30:48.207Z,1000.39
2017-09-13T00:31:48.200Z,1000.31
2017-09-13T00:32:48.197Z,1000.33
2017-09-13T00:33:48.193Z,1000.21
2017-09-13T00:34:48.190Z,1000.26
2017-09-13T00:35:48.187Z,1000.23
2017-09-13T00:36:48.187Z,1000.20
2017-09-13T00:37:48.182Z,1000.14
2017-09-13T00:38:48.179Z,1000.17
2017-09-13T00:39:48.174Z,1000.10
2017-09-13T00:40:48.172Z,1000.06
2017-09-13T00:41:48.168Z,1000.07
2017-09-13T00:42:48.164Z,1000.08
2017-09-13T00:43:48.160Z,1000.12
2017-09-13T00:44:48.154Z,1000.17
2017-09-13T00:45:48.148Z,1000.09
2017-09-13T00:46:48.144Z,1000.05
2017-09-13T00:47:48.140Z,1000.14
2017-09-13T00:48:48.137Z,1000.11
2017-09-13T00:49:48.132Z,999.95
2017-09-13T00:50:48.131Z,999.88
2017-09-13T00:51:48.127Z,999.94
2017-09-13T00:52:48.126Z,999.85
2017-09-13T00:53:48.123Z,999.88
2017-09-13T00:54:48.118Z,999.69
2017-09-13T00:55:48.115Z,999.71
2017-09-13T00:56:48.112Z,999.68
2017-09-13T00:57:48.108Z,999.69
2017-09-13T00:58:48.105Z,999.53
2017-09-13T00:59:48.099Z,999.60
2017-09-13T01:00:48.093Z,999.55
2017-09-13T01:01:48.089Z,999.43
2017-09-13T01:02:48.085Z,999.30
2017-09-13T01:03:48.081Z,999.26
2017-09-13T01:04:48.081Z,999.23
2017-09-13T01:05:48.079Z,999.25
2017-09-13T01:06:48.074Z,999.28
2017-09-13T01:07:48.075Z,999.16
2017-09-13T01:08:48.062Z,999.09
2017-09-13T01:09:48.058Z,999.08
2017-09-13T01:10:48.056Z,999.00
2017-09-13T01:11:48.051Z,998.94
2017-09-13T01:12:48.047Z,999.01
2017-09-13T01:13:48.044Z,998.88
2017-09-13T01:14:48.046Z,998.91
2017-09-13T01:15:48.036Z,998.83
2017-09-13T01:16:48.036Z,998.70
2017-09-13T01:17:48.032Z,998.68
2017-09-13T01:18:48.032Z,998.59
2017-09-13T01:19:48.024Z,998.59
2017-09-13T01:20:48.022Z,998.47
2017-09-13T01:21:48.018Z,998.51
2017-09-13T01:22:48.014Z,998.59
2017-09-13T01:23:48.010Z,998.44
2017-09-13T01:24:48.003Z,998.41
2017-09-13T01:25:47.999Z,998.42
2017-09-13T01:26:47.995Z,998.36
2017-09-13T01:27:47.990Z,998.29
2017-09-13T01:28:47.987Z,998.29
2017-09-13T01:29:47.984Z,998.22
2017-09-13T01:30:47.980Z,998.27
2017-09-13T01:31:47.974Z,998.08
2017-09-13T01:32:47.975Z,998.07
2017-09-13T01:33:47.972Z,997.99
2017-09-13T01:34:47.970Z,997.92
2017-09-13T01:35:47.965Z,997.83
2017-09-13T01:36:47.961Z,997.92
2017-09-13T01:37:47.958Z,997.85
2017-09-13T01:38:47.957Z,997.81
2017-09-13T01:39:47.949Z,997.83
2017-09-13T01:40:47.942Z,997.84
2017-09-13T01:41:47.939Z,997.75
2017-09-13T01:42:47.935Z,997.74
2017-09-13T01:43:47.930Z,997.73
2017-09-13T01:44:47.927Z,997.75
2017-09-13T01:45:47.926Z,997.72
2017-09-13T01:46:47.919Z,997.84
2017-09-13T01:47:47.916Z,997.87
2017-09-13T01:48:47.917Z,998.05
2017-09-13T01:49:47.913Z,997.97
2017-09-13T01:50:47.910Z,997.91
2017-09-13T01:51:47.905Z,998.09
2017-09-13T01:52:47.902Z,998.03
2017-09-13T01:53:47.898Z,998.17
2017-09-13T01:54:47.895Z,998.11
2017-09-13T01:55:47.890Z,998.15
2017-09-13T01:56:47.883Z,998.12
2017-09-13T01:57:47.880Z,998.14
2017-09-13T01:58:47.876Z,998.10
2017-09-13T01:59:47.871Z,998.05
2017-09-13T02:00:47.868Z,998.04
2017-09-13T02:01:47.865Z,998.06
2017-09-13T02:02:47.862Z,997.87
2017-09-13T02:03:47.859Z,997.84
2017-09-13T02:04:47.860Z,997.85
2017-09-13T02:05:47.855Z,997.79
2017-09-13T02:06:47.853Z,997.86
2017-09-13T02:07:47.848Z,997.76
2017-09-13T02:08:47.840Z,997.71
2017-09-13T02:09:47.837Z,997.75
2017-09-13T02:10:47.834Z,997.70
2017-09-13T02:11:47.830Z,997.77
2017-09-13T02:12:47.830Z,997.67
2017-09-13T02:13:47.826Z,997.79
2017-09-13T02:14:47.824Z,997.89
2017-09-13T02:15:47.820Z,997.71
2017-09-13T02:16:47.815Z,997.61
2017-09-13T02:17:47.815Z,997.63
2017-09-13T02:18:47.809Z,997.56
2017-09-13T02:19:47.806Z,997.57
2017-09-13T02:20:47.797Z,997.48
2017-09-13T02:21:47.793Z,997.31
2017-09-13T02:22:47.791Z,997.14
2017-09-13T02:23:47.786Z,997.16
2017-09-13T02:24:47.782Z,997.08
2017-09-13T02:25:47.779Z,997.13
2017-09-13T02:26:47.775Z,997.11
2017-09-13T02:27:47.769Z,997.10
2017-09-13T02:28:47.770Z,997.05
2017-09-13T02:29:47.767Z,996.92
2017-09-13T02:30:47.761Z,996.85
2017-09-13T02:31:47.757Z,996.80
2017-09-13T02:32:47.752Z,996.78
2017-09-13T02:33:47.747Z,996.86
2017-09-13T02:34:47.745Z,996.77
2017-09-13T02:35:47.744Z,996.71
2017-09-13T02:36:47.728Z,996.74
2017-09-13T02:37:47.726Z,996.69
2017-09-13T02:38:47.721Z,996.75
2017-09-13T02:39:47.715Z,996.71
2017-09-13T02:40:47.710Z,996.67
2017-09-13T02:41:47.706Z,996.66
2017-09-13T02:42:47.700Z,996.73
2017-09-13T02:43:47.696Z,996.72
2017-09-13T02:44:47.694Z,996.68
2017-09-13T02:45:47.690Z,996.65
2017-09-13T02:46:47.686Z,996.64
2017-09-13T02:47:47.680Z,996.59
2017-09-13T02:48:47.675Z,996.62
2017-09-13T02:49:47.670Z,996.51
2017-09-13T02:50:47.666Z,996.60
2017-09-13T02:51:47.660Z,996.44
2017-09-13T02:52:47.652Z,996.41
2017-09-13T02:53:47.646Z,996.31
2017-09-13T02:54:47.642Z,996.36
2017-09-13T02:55:47.636Z,996.36
2017-09-13T02:56:47.630Z,996.36
2017-09-13T02:57:47.627Z,996.40
2017-09-13T02:58:47.620Z,996.37
2017-09-13T02:59:47.615Z,996.36
2017-09-13T03:00:47.618Z,996.35
2017-09-13T03:01:47.609Z,996.36
2017-09-13T03:02:47.604Z,996.36
2017-09-13T03:03:47.600Z,996.29
2017-09-13T03:04:47.593Z,996.19
2017-09-13T03:05:47.591Z,996.19
2017-09-13T03:06:47.585Z,996.18
2017-09-13T03:07:47.578Z,996.32
2017-09-13T03:08:47.570Z,996.16
2017-09-13T03:09:47.565Z,996.09
2017-09-13T03:10:47.562Z,996.10
2017-09-13T03:11:47.553Z,996.01
2017-09-13T03:12:47.554Z,996.00
2017-09-13T03:13:47.548Z,995.94
2017-09-13T03:14:47.544Z,996.01
2017-09-13T03:15:47.537Z,995.88
2017-09-13T03:16:47.529Z,995.89
2017-09-13T03:17:47.524Z,995.89
2017-09-13T03:18:47.519Z,995.75
2017-09-13T03:19:47.512Z,995.62
2017-09-13T03:20:47.509Z,995.65
2017-09-13T03:21:47.504Z,995.62
2017-09-13T03:22:47.497Z,995.52
2017-09-13T03:23:47.494Z,995.54
2017-09-13T03:24:47.493Z,995.54
2017-09-13T03:25:47.487Z,995.38
2017-09-13T03:26:47.482Z,995.43
2017-09-13T03:27:47.475Z,995.42
2017-09-13T03:28:47.471Z,995.33
2017-09-13T03:29:47.467Z,995.31
2017-09-13T03:30:47.463Z,995.20
2017-09-13T03:31:47.457Z,995.21
2017-09-13T03:32:47.446Z,995.26
2017-09-13T03:33:47.441Z,995.16
2017-09-13T03:34:47.438Z,995.17
2017-09-13T03:35:47.431Z,995.15
2017-09-13T03:36:47.426Z,995.13
2017-09-13T03:37:47.420Z,995.02
2017-09-13T03:38:47.417Z,995.05
2017-09-13T03:39:47.414Z,995.09
2017-09-13T03:40:47.436Z,994.95
2017-09-13T03:41:47.405Z,994.96
2017-09-13T03:42:47.399Z,994.92
2017-09-13T03:43:47.394Z,994.92
2017-09-13T03:44:47.392Z,994.99
2017-09-13T03:45:47.384Z,994.94
2017-09-13T03:46:47.379Z,994.75
2017-09-13T03:47:47.373Z,994.79
2017-09-13T03:48:47.363Z,994.83
2017-09-13T03:49:47.360Z,994.81
2017-09-13T03:50:47.354Z,994.74
2017-09-13T03:51:47.348Z,994.72
2017-09-13T03:52:47.347Z,994.64
2017-09-13T03:53:47.337Z,994.81
2017-09-13T03:54:47.335Z,994.80
2017-09-13T03:55:47.328Z,994.72
2017-09-13T03:56:47.326Z,994.72
2017-09-13T03:57:47.322Z,994.51
2017-09-13T03:58:47.316Z,994.46
2017-09-13T03:59:47.310Z,994.40
2017-09-13T04:00:47.307Z,994.70
2017-09-13T04:01:47.301Z,994.51
2017-09-13T04:02:47.296Z,994.51
2017-09-13T04:03:47.291Z,994.41
2017-09-13T04:04:47.282Z,994.46
2017-09-13T04:05:47.277Z,994.57
2017-09-13T04:06:47.273Z,994.38
2017-09-13T04:07:47.265Z,994.41
2017-09-13T04:08:47.261Z,994.25
2017-09-13T04:09:47.258Z,994.34
2017-09-13T04:10:47.251Z,994.27
2017-09-13T04:11:47.247Z,994.22
2017-09-13T04:12:47.249Z,994.27
2017-09-13T04:13:47.241Z,994.27
2017-09-13T04:14:47.235Z,994.28
2017-09-13T04:15:47.229Z,994.19
2017-09-13T04:16:47.220Z,994.36
2017-09-13T04:17:47.216Z,994.20
2017-09-13T04:18:47.213Z,994.29
2017-09-13T04:19:47.204Z,994.27
2017-09-13T04:20:47.204Z,994.27
2017-09-13T04:21:47.200Z,994.20
2017-09-13T04:22:47.195Z,994.16
2017-09-13T04:23:47.190Z,994.21
2017-09-13T04:24:47.186Z,994.22
2017-09-13T04:25:47.180Z,994.24
2017-09-13T04:26:47.174Z,994.27
2017-09-13T04:27:47.169Z,994.15
2017-09-13T04:28:47.161Z,994.25
2017-09-13T04:29:47.156Z,994.21
2017-09-13T04:30:47.152Z,994.21
2017-09-13T04:31:47.145Z,994.17
2017-09-13T04:32:47.140Z,994.27
2017-09-13T04:33:47.137Z,994.22
2017-09-13T04:34:47.129Z,994.20
2017-09-13T04:35:47.125Z,994.20
2017-09-13T04:36:47.124Z,994.17
2017-09-13T04:37:47.120Z,994.11
2017-09-13T04:38:47.114Z,994.14
2017-09-13T04:39:47.108Z,994.07
2017-09-13T04:40:47.105Z,993.90
2017-09-13T04:41:47.099Z,993.99
2017-09-13T04:42:47.100Z,994.10
2017-09-13T04:43:47.097Z,994.10
2017-09-13T04:44:47.084Z,994.04
2017-09-13T04:45:47.075Z,993.90
2017-09-13T04:46:47.070Z,993.84
2017-09-13T04:47:47.070Z,993.92
2017-09-13T04:48:47.062Z,993.92
2017-09-13T04:49:47.055Z,993.93
2017-09-13T04:50:47.052Z,994.01
2017-09-13T04:51:47.046Z,993.99
2017-09-13T04:52:47.048Z,993.92
2017-09-13T04:53:47.041Z,993.90
2017-09-13T04:54:47.036Z,993.90
2017-09-13T04:55:47.031Z,993.79
2017-09-13T04:56:47.025Z,994.00
2017-09-13T04:57:47.020Z,993.90
2017-09-13T04:58:47.015Z,993.92
2017-09-13T04:59:47.011Z,993.84
2017-09-13T05:00:47.001Z,993.90
2017-09-13T05:01:46.998Z,993.89
2017-09-13T05:02:46.993Z,993.78
2017-09-13T05:03:46.986Z,994.01
2017-09-13T05:04:46.982Z,994.09
2017-09-13T05:05:46.978Z,993.87
2017-09-13T05:06:46.974Z,993.89
2017-09-13T05:07:46.970Z,993.71
2017-09-13T05:08:46.968Z,993.75
2017-09-13T05:09:46.963Z,993.82
2017-09-13T05:10:46.961Z,993.73
2017-09-13T05:11:46.954Z,993.77
2017-09-13T05:12:46.949Z,993.66
2017-09-13T05:13:46.945Z,993.82
2017-09-13T05:14:46.942Z,993.72
2017-09-13T05:15:46.938Z,993.80
2017-09-13T05:16:46.926Z,993.74
2017-09-13T05:17:46.922Z,993.70
2017-09-13T05:18:46.918Z,993.57
2017-09-13T05:19:46.911Z,993.78
2017-09-13T05:20:46.912Z,993.61
2017-09-13T05:21:46.908Z,993.65
2017-09-13T05:22:46.902Z,993.75
2017-09-13T05:23:46.897Z,993.62
2017-09-13T05:24:46.889Z,993.71
2017-09-13T05:25:46.885Z,993.66
2017-09-13T05:26:46.881Z,993.65
2017-09-13T05:27:46.875Z,993.56
2017-09-13T05:28:46.870Z,993.57
2017-09-13T05:29:46.867Z,993.58
2017-09-13T05:30:46.862Z,993.59
2017-09-13T05:31:46.857Z,993.63
2017-09-13T05:32:46.856Z,993.65
2017-09-13T05:33:46.851Z,993.60
2017-09-13T05:34:46.849Z,993.61
2017-09-13T05:35:46.842Z,993.63
2017-09-13T05:36:46.842Z,993.58
2017-09-13T05:37:46.835Z,993.61
2017-09-13T05:38:46.829Z,993.68
2017-09-13T05:39:46.825Z,993.67
2017-09-13T05:40:46.817Z,993.58
2017-09-13T05:41:46.812Z,993.44
2017-09-13T05:42:46.809Z,993.67
2017-09-13T05:43:46.804Z,993.55
2017-09-13T05:44:46.798Z,993.51
2017-09-13T05:45:46.794Z,993.52
2017-09-13T05:46:46.791Z,993.55
2017-09-13T05:47:46.788Z,993.60
2017-09-13T05:48:46.786Z,993.77
2017-09-13T05:49:46.781Z,993.61
2017-09-13T05:50:46.779Z,993.74
2017-09-13T05:51:46.772Z,993.82
2017-09-13T05:52:46.769Z,994.11
2017-09-13T05:53:46.763Z,993.75
2017-09-13T05:54:46.762Z,993.98
2017-09-13T05:55:46.755Z,994.04
2017-09-13T05:56:46.747Z,993.85
2017-09-13T05:57:46.744Z,993.79
2017-09-13T05:58:46.739Z,993.85
2017-09-13T05:59:46.733Z,994.01
2017-09-13T06:00:46.730Z,993.88
2017-09-13T06:01:46.726Z,993.89
2017-09-13T06:02:46.721Z,993.83
2017-09-13T06:03:46.718Z,993.80
2017-09-13T06:04:46.717Z,993.93
2017-09-13T06:05:46.714Z,994.00
2017-09-13T06:06:46.709Z,993.99
2017-09-13T06:07:46.704Z,993.84
2017-09-13T06:08:46.701Z,993.77
2017-09-13T06:09:46.697Z,993.88
2017-09-13T06:10:46.693Z,993.96
2017-09-13T06:11:46.687Z,994.00
2017-09-13T06:12:46.679Z,993.90
2017-09-13T06:13:46.676Z,994.01
2017-09-13T06:14:46.672Z,993.99
2017-09-13T06:15:46.670Z,994.10
2017-09-13T06:16:46.665Z,994.11
2017-09-13T06:17:46.661Z,994.13
2017-09-13T06:18:46.655Z,994.10
2017-09-13T06:19:46.652Z,994.07
2017-09-13T06:20:46.651Z,994.08
2017-09-13T06:21:46.648Z,994.08
2017-09-13T06:22:46.645Z,994.10
2017-09-13T06:23:46.640Z,994.08
2017-09-13T06:24:46.632Z,994.14
2017-09-13T06:25:46.628Z,994.70
2017-09-13T06:26:46.624Z,994.67
2017-09-13T06:27:46.619Z,994.74
2017-09-13T06:28:46.620Z,994.19
2017-09-13T06:29:46.619Z,994.65
2017-09-13T06:30:46.615Z,994.55
2017-09-13T06:31:46.611Z,994.45
2017-09-13T06:32:46.608Z,994.42
2017-09-13T06:33:46.605Z,994.52
2017-09-13T06:34:46.603Z,994.20
2017-09-13T06:35:46.599Z,994.49
2017-09-13T06:36:46.595Z,994.33
2017-09-13T06:37:46.592Z,994.65
2017-09-13T06:38:46.591Z,994.39
2017-09-13T06:39:46.588Z,994.19
2017-09-13T06:40:46.588Z,994.17
2017-09-13T06:41:46.590Z,994.09
2017-09-13T06:42:46.588Z,994.06
2017-09-13T06:43:46.586Z,994.08
2017-09-13T06:44:46.585Z,993.93
2017-09-13T06:45:46.583Z,993.96
2017-09-13T06:46:46.584Z,994.00
2017-09-13T06:47:46.580Z,994.02
2017-09-13T06:48:46.579Z,994.17
2017-09-13T06:49:46.578Z,993.95
2017-09-13T06:50:46.576Z,993.86
2017-09-13T06:51:46.574Z,994.09
2017-09-13T06:52:46.568Z,994.69
2017-09-13T06:53:46.567Z,994.60
2017-09-13T06:54:46.566Z,994.28
2017-09-13T06:55:46.564Z,994.21
2017-09-13T06:56:46.561Z,993.97
2017-09-13T06:57:46.561Z,993.84
2017-09-13T06:58:46.560Z,993.81
2017-09-13T06:59:46.558Z,993.85
2017-09-13T07:00:46.562Z,993.89
2017-09-13T07:01:46.560Z,993.85
2017-09-13T07:02:46.559Z,993.70
2017-09-13T07:03:46.558Z,994.49
2017-09-13T07:04:46.556Z,994.37
2017-09-13T07:05:46.556Z,994.49
2017-09-13T07:06:46.555Z,994.64
2017-09-13T07:07:46.554Z,994.07
2017-09-13T07:08:46.549Z,994.63
2017-09-13T07:09:46.548Z,994.58
2017-09-13T07:10:46.548Z,994.47
2017-09-13T07:11:46.547Z,994.52
2017-09-13T07:12:46.547Z,994.69
2017-09-13T07:13:46.548Z,994.59
2017-09-13T07:14:46.550Z,994.66
2017-09-13T07:15:46.547Z,994.53
2017-09-13T07:16:46.552Z,994.66
2017-09-13T07:17:46.555Z,994.63
2017-09-13T07:18:46.555Z,993.93
2017-09-13T07:19:46.557Z,994.07
2017-09-13T07:20:46.561Z,993.89
2017-09-13T07:21:46.560Z,994.69
2017-09-13T07:22:46.564Z,994.37
2017-09-13T07:23:46.563Z,994.74
2017-09-13T07:24:46.561Z,994.62
2017-09-13T07:25:46.565Z,994.30
2017-09-13T07:26:46.565Z,994.74
2017-09-13T07:27:46.567Z,993.99
2017-09-13T07:28:46.573Z,994.98
2017-09-13T07:29:46.573Z,994.23
2017-09-13T07:30:46.574Z,994.20
2017-09-13T07:31:46.575Z,994.26
2017-09-13T07:32:46.583Z,994.33
2017-09-13T07:33:46.585Z,994.15
2017-09-13T07:34:46.587Z,995.03
2017-09-13T07:35:46.592Z,994.19
2017-09-13T07:36:46.590Z,994.16
2017-09-13T07:37:46.592Z,994.11
2017-09-13T07:38:46.596Z,994.08
2017-09-13T07:39:46.595Z,994.16
2017-09-13T07:40:46.592Z,994.01
2017-09-13T07:41:46.595Z,993.95
2017-09-13T07:42:46.596Z,994.02
2017-09-13T07:43:46.598Z,994.13
2017-09-13T07:44:46.597Z,994.18
2017-09-13T07:45:46.598Z,994.06
2017-09-13T07:46:46.599Z,994.01
2017-09-13T07:47:46.598Z,994.18
2017-09-13T07:48:46.633Z,993.86
2017-09-13T07:49:46.604Z,993.94
2017-09-13T07:50:46.610Z,993.93
2017-09-13T07:51:46.603Z,994.02
2017-09-13T07:52:46.604Z,994.20
2017-09-13T07:53:46.629Z,994.06
2017-09-13T07:54:46.604Z,994.05
2017-09-13T07:55:46.603Z,994.22
2017-09-13T07:56:46.600Z,994.18
2017-09-13T07:57:46.598Z,994.14
2017-09-13T07:58:46.599Z,994.10
2017-09-13T07:59:46.597Z,994.17
2017-09-13T08:00:46.596Z,994.20
2017-09-13T08:01:46.595Z,994.18
2017-09-13T08:02:46.593Z,994.10
2017-09-13T08:03:46.592Z,994.23
2017-09-13T08:04:46.595Z,994.41
2017-09-13T08:05:46.594Z,994.33
2017-09-13T08:06:46.614Z,994.46
2017-09-13T08:07:46.590Z,994.30
2017-09-13T08:08:46.589Z,994.31
2017-09-13T08:09:46.589Z,994.34
2017-09-13T08:10:46.587Z,994.41
2017-09-13T08:11:46.584Z,994.63
2017-09-13T08:12:46.579Z,994.46
2017-09-13T08:13:46.578Z,994.50
2017-09-13T08:14:46.576Z,994.34
2017-09-13T08:15:46.575Z,994.60
2017-09-13T08:16:46.572Z,994.26
2017-09-13T08:17:46.572Z,994.59
2017-09-13T08:18:46.572Z,994.40
2017-09-13T08:19:46.568Z,994.31
2017-09-13T08:20:46.571Z,994.44
2017-09-13T08:21:46.575Z,994.71
2017-09-13T08:22:46.570Z,994.42
2017-09-13T08:23:46.571Z,994.59
2017-09-13T08:24:46.569Z,994.46
2017-09-13T08:25:46.567Z,994.50
2017-09-13T08:26:46.567Z,994.99
2017-09-13T08:27:46.565Z,994.67
2017-09-13T08:28:46.559Z,994.82
2017-09-13T08:29:46.559Z,994.51
2017-09-13T08:30:46.558Z,994.84
2017-09-13T08:31:46.557Z,994.92
2017-09-13T08:32:46.563Z,994.71
2017-09-13T08:33:46.568Z,994.90
2017-09-13T08:34:46.563Z,994.65
2017-09-13T08:35:46.562Z,994.81
2017-09-13T08:36:46.558Z,995.14
2017-09-13T08:37:46.561Z,995.07
2017-09-13T08:38:46.562Z,994.85
2017-09-13T08:39:46.564Z,995.00
2017-09-13T08:40:46.566Z,994.92
2017-09-13T08:41:46.568Z,995.35
2017-09-13T08:42:46.570Z,994.84
2017-09-13T08:43:46.601Z,994.91
2017-09-13T08:44:46.600Z,994.92
2017-09-13T08:45:46.583Z,994.76
2017-09-13T08:46:46.585Z,995.01
2017-09-13T08:47:46.588Z,994.75
2017-09-13T08:48:46.591Z,994.90
2017-09-13T08:49:46.595Z,994.77
2017-09-13T08:50:46.597Z,994.80
2017-09-13T08:51:46.600Z,994.62
2017-09-13T08:52:46.599Z,994.80
2017-09-13T08:53:46.600Z,994.80
2017-09-13T08:54:46.603Z,994.80
2017-09-13T08:55:46.604Z,994.96
2017-09-13T08:56:46.612Z,994.87
2017-09-13T08:57:46.614Z,994.90
2017-09-13T08:58:46.612Z,994.88
2017-09-13T08:59:46.642Z,994.99
2017-09-13T09:00:46.693Z,994.91
2017-09-13T09:01:46.767Z,994.88
2017-09-13T09:02:46.775Z,994.83
2017-09-13T09:03:46.736Z,994.91
2017-09-13T09:04:46.687Z,994.96
2017-09-13T09:05:46.731Z,994.97
2017-09-13T09:06:46.719Z,995.04
2017-09-13T09:07:46.657Z,994.83
2017-09-13T09:08:46.740Z,994.90
2017-09-13T09:09:46.716Z,995.12
2017-09-13T09:10:46.671Z,995.05
2017-09-13T09:11:46.621Z,995.04
2017-09-13T09:12:46.622Z,994.92
2017-09-13T09:13:46.628Z,994.97
2017-09-13T09:14:46.622Z,995.11
2017-09-13T09:15:46.646Z,994.99
2017-09-13T09:16:46.627Z,995.28
2017-09-13T09:17:46.626Z,995.07
2017-09-13T09:18:46.626Z,995.24
2017-09-13T09:19:46.625Z,995.23
2017-09-13T09:20:46.626Z,995.30
2017-09-13T09:21:46.626Z,995.24
2017-09-13T09:22:46.628Z,995.09
2017-09-13T09:23:46.625Z,995.13
2017-09-13T09:24:46.628Z,995.16
2017-09-13T09:25:46.620Z,995.22
2017-09-13T09:26:46.622Z,995.50
2017-09-13T09:27:46.625Z,995.59
2017-09-13T09:28:46.621Z,995.55
2017-09-13T09:29:46.621Z,995.37
2017-09-13T09:30:46.629Z,995.28
2017-09-13T09:31:46.621Z,995.14
2017-09-13T09:32:46.626Z,995.09
2017-09-13T09:33:46.629Z,995.21
2017-09-13T09:34:46.629Z,995.33
2017-09-13T09:35:46.631Z,995.20
2017-09-13T09:36:46.628Z,995.32
2017-09-13T09:37:46.631Z,995.26
2017-09-13T09:38:46.630Z,995.37
2017-09-13T09:39:46.633Z,995.32
2017-09-13T09:40:46.637Z,995.27
2017-09-13T09:41:46.639Z,995.51
2017-09-13T09:42:46.641Z,995.48
2017-09-13T09:43:46.639Z,995.31
2017-09-13T09:44:46.641Z,995.39
2017-09-13T09:45:46.643Z,995.33
2017-09-13T09:46:46.645Z,995.57
2017-09-13T09:47:46.647Z,995.36
2017-09-13T09:48:46.644Z,995.41
2017-09-13T09:49:46.646Z,995.85
2017-09-13T09:50:46.649Z,995.57
2017-09-13T09:51:46.651Z,995.54
2017-09-13T09:52:46.652Z,995.48
2017-09-13T09:53:46.654Z,995.39
2017-09-13T09:54:46.655Z,995.74
2017-09-13T09:55:46.661Z,995.72
2017-09-13T09:56:46.665Z,995.55
2017-09-13T09:57:46.670Z,995.49
2017-09-13T09:58:46.671Z,995.58
2017-09-13T09:59:46.673Z,995.56
2017-09-13T10:00:46.676Z,995.59
2017-09-13T10:01:46.680Z,995.74
2017-09-13T10:02:46.683Z,995.57
2017-09-13T10:03:46.684Z,995.70
2017-09-13T10:04:46.684Z,995.89
2017-09-13T10:05:46.687Z,995.89
2017-09-13T10:06:46.692Z,995.53
2017-09-13T10:07:46.695Z,995.56
2017-09-13T10:08:46.731Z,995.67
2017-09-13T10:09:46.703Z,995.70
2017-09-13T10:10:46.707Z,995.98
2017-09-13T10:11:46.712Z,995.64
2017-09-13T10:12:46.719Z,995.93
2017-09-13T10:13:46.724Z,996.11
2017-09-13T10:14:46.727Z,995.90
2017-09-13T10:15:46.732Z,995.78
2017-09-13T10:16:46.737Z,996.11
2017-09-13T10:17:46.741Z,995.71
2017-09-13T10:18:46.747Z,995.96
2017-09-13T10:19:46.751Z,996.13
2017-09-13T10:20:46.753Z,995.84
2017-09-13T10:21:46.759Z,996.14
2017-09-13T10:22:46.765Z,995.73
2017-09-13T10:23:46.770Z,995.80
2017-09-13T10:24:46.775Z,996.00
2017-09-13T10:25:46.782Z,996.10
2017-09-13T10:26:46.788Z,995.98
2017-09-13T10:27:46.792Z,996.27
2017-09-13T10:28:46.803Z,996.27
2017-09-13T10:29:46.809Z,996.02
2017-09-13T10:30:46.816Z,995.93
2017-09-13T10:31:46.823Z,995.99
2017-09-13T10:32:46.825Z,996.16
2017-09-13T10:33:46.832Z,996.11
2017-09-13T10:34:46.837Z,995.97
2017-09-13T10:35:46.843Z,995.95
2017-09-13T10:36:46.845Z,996.36
2017-09-13T10:37:46.850Z,996.22
2017-09-13T10:38:46.856Z,996.23
2017-09-13T10:39:46.861Z,996.19
2017-09-13T10:40:46.870Z,996.25
2017-09-13T10:41:46.876Z,996.54
2017-09-13T10:42:46.881Z,996.15
2017-09-13T10:43:46.958Z,996.51
2017-09-13T10:44:46.893Z,996.34
2017-09-13T10:45:46.890Z,996.38
2017-09-13T10:46:46.896Z,996.53
2017-09-13T10:47:46.900Z,996.56
2017-09-13T10:48:46.905Z,996.43
2017-09-13T10:49:46.910Z,996.44
2017-09-13T10:50:46.917Z,996.44
2017-09-13T10:51:46.919Z,996.53
2017-09-13T10:52:46.928Z,996.60
2017-09-13T10:53:46.934Z,996.63
2017-09-13T10:54:46.942Z,996.42
2017-09-13T10:55:46.951Z,996.60
2017-09-13T10:56:46.954Z,996.26
2017-09-13T10:57:46.960Z,996.68
2017-09-13T10:58:46.970Z,996.54
2017-09-13T10:59:46.975Z,996.58
2017-09-13T11:00:46.978Z,996.52
2017-09-13T11:01:46.986Z,996.57
2017-09-13T11:02:46.994Z,996.59
2017-09-13T11:03:46.999Z,996.62
2017-09-13T11:04:47.008Z,996.85
2017-09-13T11:05:47.016Z,996.78
2017-09-13T11:06:47.025Z,996.83
2017-09-13T11:07:47.034Z,996.67
2017-09-13T11:08:47.045Z,996.45
2017-09-13T11:09:47.053Z,996.59
2017-09-13T11:10:47.066Z,996.78
2017-09-13T11:11:47.072Z,996.64
2017-09-13T11:12:47.081Z,996.73
2017-09-13T11:13:47.095Z,996.59
2017-09-13T11:14:47.100Z,996.72
2017-09-13T11:15:47.108Z,996.56
2017-09-13T11:16:47.113Z,996.48
2017-09-13T11:17:47.123Z,996.77
2017-09-13T11:18:47.133Z,996.57
2017-09-13T11:19:47.140Z,996.81
2017-09-13T11:20:47.151Z,996.67
2017-09-13T11:21:47.158Z,996.72
2017-09-13T11:22:47.168Z,996.48
2017-09-13T11:23:47.176Z,996.58
2017-09-13T11:24:47.188Z,996.57
2017-09-13T11:25:47.197Z,996.62
2017-09-13T11:26:47.206Z,996.49
2017-09-13T11:27:47.212Z,996.53
2017-09-13T11:28:47.218Z,996.53
2017-09-13T11:29:47.227Z,996.56
2017-09-13T11:30:47.233Z,996.42
2017-09-13T11:31:47.239Z,996.56
2017-09-13T11:32:47.243Z,996.57
2017-09-13T11:33:47.247Z,996.39
2017-09-13T11:34:47.254Z,996.57
2017-09-13T11:35:47.259Z,996.59
2017-09-13T11:36:47.265Z,996.79
2017-09-13T11:37:47.270Z,996.53
2017-09-13T11:38:47.276Z,996.60
2017-09-13T11:39:47.280Z,996.61
2017-09-13T11:40:47.289Z,996.80
2017-09-13T11:41:47.296Z,996.51
2017-09-13T11:42:47.298Z,996.57
2017-09-13T11:43:47.302Z,996.42
2017-09-13T11:44:47.307Z,996.59
2017-09-13T11:45:47.313Z,996.56
2017-09-13T11:46:47.314Z,996.49
2017-09-13T11:47:47.318Z,996.49
2017-09-13T11:48:47.321Z,996.64
2017-09-13T11:49:47.323Z,996.54
2017-09-13T11:50:47.326Z,996.66
2017-09-13T11:51:47.332Z,996.57
2017-09-13T11:52:47.331Z,996.66
2017-09-13T11:53:47.335Z,996.65
2017-09-13T11:54:47.340Z,996.85
2017-09-13T11:55:47.342Z,996.63
2017-09-13T11:56:47.351Z,996.58
2017-09-13T11:57:47.352Z,996.65
2017-09-13T11:58:47.355Z,996.75
2017-09-13T11:59:47.358Z,996.58
2017-09-13T12:00:47.362Z,996.58
2017-09-13T12:01:47.364Z,996.68
2017-09-13T12:02:47.367Z,996.64
2017-09-13T12:03:47.369Z,996.73
2017-09-13T12:04:47.368Z,996.67
2017-09-13T12:05:47.371Z,996.85
2017-09-13T12:06:47.373Z,996.58
2017-09-13T12:07:47.375Z,996.66
2017-09-13T12:08:47.377Z,996.53
2017-09-13T12:09:47.380Z,996.73
2017-09-13T12:10:47.383Z,996.83
2017-09-13T12:11:47.384Z,996.74
2017-09-13T12:12:47.392Z,996.76
2017-09-13T12:13:47.393Z,996.78
2017-09-13T12:14:47.397Z,996.84
2017-09-13T12:15:47.398Z,996.79
2017-09-13T12:16:47.402Z,996.78
2017-09-13T12:17:47.403Z,996.78
2017-09-13T12:18:47.405Z,996.87
2017-09-13T12:19:47.408Z,996.76
2017-09-13T12:20:47.405Z,996.83
2017-09-13T12:21:47.408Z,996.97
2017-09-13T12:22:47.409Z,997.15
2017-09-13T12:23:47.411Z,997.06
2017-09-13T12:24:47.414Z,997.05
2017-09-13T12:25:47.415Z,996.92
2017-09-13T12:26:47.419Z,996.93